sensor_id;sensor_type;location;lat;lon;timestamp;temperature;humidity
22073;DHT22;11202;50.916;4.698;2022-12-26T00:01:00;10.90;99.90
22073;DHT22;11202;50.916;4.698;2022-12-26T00:03:26;10.90;99.90
22073;DHT22;11202;50.916;4.698;2022-12-26T00:05:55;11.10;99.90
22073;DHT22;11202;50.916;4.698;2022-12-26T00:08:20;11.40;99.90
22073;DHT22;11202;50.916;4.698;2022-12-26T00:10:46;11.50;99.90
22073;DHT22;11202;50.916;4.698;2022-12-26T00:13:12;11.50;99.90
22073;DHT22;11202;50.916;4.698;2022-12-26T00:15:41;11.40;99.90
22073;DHT22;11202;50.916;4.698;2022-12-26T00:18:07;11.30;99.90
22073;DHT22;11202;50.916;4.698;2022-12-26T00:20:33;11.20;99.90
22073;DHT22;11202;50.916;4.698;2022-12-26T00:22:59;11.20;99.90
22073;DHT22;11202;50.916;4.698;2022-12-26T00:25:26;11.10;99.90
22073;DHT22;11202;50.916;4.698;2022-12-26T00:27:55;11.10;99.90
22073;DHT22;11202;50.916;4.698;2022-12-26T00:30:20;11.20;99.90
22073;DHT22;11202;50.916;4.698;2022-12-26T00:32:48;11.20;99.90
22073;DHT22;11202;50.916;4.698;2022-12-26T00:35:14;11.20;99.90
22073;DHT22;11202;50.916;4.698;2022-12-26T00:37:42;11.20;99.90
22073;DHT22;11202;50.916;4.698;2022-12-26T00:40:08;11.10;99.90
22073;DHT22;11202;50.916;4.698;2022-12-26T00:42:35;11.10;99.90
22073;DHT22;11202;50.916;4.698;2022-12-26T00:45:01;11.10;99.90
22073;DHT22;11202;50.916;4.698;2022-12-26T00:47:26;11.00;99.90
22073;DHT22;11202;50.916;4.698;2022-12-26T00:49:52;11.00;99.90
22073;DHT22;11202;50.916;4.698;2022-12-26T00:52:20;10.90;99.90
22073;DHT22;11202;50.916;4.698;2022-12-26T00:54:46;10.90;99.90
22073;DHT22;11202;50.916;4.698;2022-12-26T00:57:11;10.90;99.90
22073;DHT22;11202;50.916;4.698;2022-12-26T00:59:37;10.90;99.90
22073;DHT22;11202;50.916;4.698;2022-12-26T01:02:03;10.80;99.90
22073;DHT22;11202;50.916;4.698;2022-12-26T01:04:49;10.90;99.90
22073;DHT22;11202;50.916;4.698;2022-12-26T01:07:15;10.90;99.90
22073;DHT22;11202;50.916;4.698;2022-12-26T01:09:42;10.90;99.90
22073;DHT22;11202;50.916;4.698;2022-12-26T01:12:07;10.90;99.90
22073;DHT22;11202;50.916;4.698;2022-12-26T01:14:33;10.90;99.90
22073;DHT22;11202;50.916;4.698;2022-12-26T01:17:02;10.90;99.90
22073;DHT22;11202;50.916;4.698;2022-12-26T01:19:28;10.90;99.90
22073;DHT22;11202;50.916;4.698;2022-12-26T01:21:56;10.90;99.90
22073;DHT22;11202;50.916;4.698;2022-12-26T01:24:21;10.90;99.90
22073;DHT22;11202;50.916;4.698;2022-12-26T01:26:49;10.90;99.90
22073;DHT22;11202;50.916;4.698;2022-12-26T01:29:18;10.80;99.90
22073;DHT22;11202;50.916;4.698;2022-12-26T01:31:44;10.70;99.90
22073;DHT22;11202;50.916;4.698;2022-12-26T01:34:12;10.80;99.90
22073;DHT22;11202;50.916;4.698;2022-12-26T01:36:38;10.80;99.90
22073;DHT22;11202;50.916;4.698;2022-12-26T01:39:04;10.80;99.90
22073;DHT22;11202;50.916;4.698;2022-12-26T01:41:30;10.80;99.90
22073;DHT22;11202;50.916;4.698;2022-12-26T01:44:01;10.90;99.90
22073;DHT22;11202;50.916;4.698;2022-12-26T01:46:39;10.90;99.90
22073;DHT22;11202;50.916;4.698;2022-12-26T01:49:30;10.80;99.90
22073;DHT22;11202;50.916;4.698;2022-12-26T01:52:00;10.80;99.90
22073;DHT22;11202;50.916;4.698;2022-12-26T01:54:29;10.80;99.90
22073;DHT22;11202;50.916;4.698;2022-12-26T01:56:57;10.80;99.90
22073;DHT22;11202;50.916;4.698;2022-12-26T01:59:27;10.80;99.90
22073;DHT22;11202;50.916;4.698;2022-12-26T02:01:54;10.80;99.90
22073;DHT22;11202;50.916;4.698;2022-12-26T02:04:24;10.70;99.90
22073;DHT22;11202;50.916;4.698;2022-12-26T02:07:09;10.70;99.90
22073;DHT22;11202;50.916;4.698;2022-12-26T02:09:36;10.60;99.90
22073;DHT22;11202;50.916;4.698;2022-12-26T02:12:29;10.60;99.90
22073;DHT22;11202;50.916;4.698;2022-12-26T02:14:56;10.60;99.90
22073;DHT22;11202;50.916;4.698;2022-12-26T02:17:24;10.50;99.90
22073;DHT22;11202;50.916;4.698;2022-12-26T02:23:16;10.60;99.90
22073;DHT22;11202;50.916;4.698;2022-12-26T02:26:42;10.50;99.90
22073;DHT22;11202;50.916;4.698;2022-12-26T02:56:48;10.40;99.90
22073;DHT22;11202;50.916;4.698;2022-12-26T03:02:46;10.40;99.90
22073;DHT22;11202;50.916;4.698;2022-12-26T03:05:43;10.40;99.90
22073;DHT22;11202;50.916;4.698;2022-12-26T03:08:55;10.40;99.90
22073;DHT22;11202;50.916;4.698;2022-12-26T03:11:44;10.40;99.90
22073;DHT22;11202;50.916;4.698;2022-12-26T03:14:34;10.40;99.90
22073;DHT22;11202;50.916;4.698;2022-12-26T03:17:07;10.30;99.90
22073;DHT22;11202;50.916;4.698;2022-12-26T03:20:19;10.30;99.90
22073;DHT22;11202;50.916;4.698;2022-12-26T03:23:02;10.30;99.90
22073;DHT22;11202;50.916;4.698;2022-12-26T03:28:33;10.30;99.90
22073;DHT22;11202;50.916;4.698;2022-12-26T03:31:06;10.30;99.90
22073;DHT22;11202;50.916;4.698;2022-12-26T03:33:41;10.30;99.90
22073;DHT22;11202;50.916;4.698;2022-12-26T03:40:10;10.30;99.90
22073;DHT22;11202;50.916;4.698;2022-12-26T03:46:57;10.30;99.90
22073;DHT22;11202;50.916;4.698;2022-12-26T03:49:46;10.30;99.90
22073;DHT22;11202;50.916;4.698;2022-12-26T03:52:50;10.40;99.90
22073;DHT22;11202;50.916;4.698;2022-12-26T03:56:03;10.40;99.90
22073;DHT22;11202;50.916;4.698;2022-12-26T03:59:09;10.40;99.90
22073;DHT22;11202;50.916;4.698;2022-12-26T04:01:55;10.40;99.90
22073;DHT22;11202;50.916;4.698;2022-12-26T04:04:43;10.40;99.90
22073;DHT22;11202;50.916;4.698;2022-12-26T04:07:32;10.50;99.90
22073;DHT22;11202;50.916;4.698;2022-12-26T04:10:43;10.50;99.90
22073;DHT22;11202;50.916;4.698;2022-12-26T04:16:53;10.50;99.90
22073;DHT22;11202;50.916;4.698;2022-12-26T04:25:48;10.50;99.90
22073;DHT22;11202;50.916;4.698;2022-12-26T04:28:36;10.50;99.90
22073;DHT22;11202;50.916;4.698;2022-12-26T04:31:22;10.60;99.90
22073;DHT22;11202;50.916;4.698;2022-12-26T04:34:14;10.60;99.90
22073;DHT22;11202;50.916;4.698;2022-12-26T04:37:05;10.60;99.90
22073;DHT22;11202;50.916;4.698;2022-12-26T04:39:53;10.60;99.90
22073;DHT22;11202;50.916;4.698;2022-12-26T04:42:40;10.60;99.90
22073;DHT22;11202;50.916;4.698;2022-12-26T04:45:25;10.60;99.90
22073;DHT22;11202;50.916;4.698;2022-12-26T04:47:51;10.60;99.90
22073;DHT22;11202;50.916;4.698;2022-12-26T04:50:48;10.60;99.90
22073;DHT22;11202;50.916;4.698;2022-12-26T04:53:14;10.60;99.90
22073;DHT22;11202;50.916;4.698;2022-12-26T04:55:40;10.60;99.90
22073;DHT22;11202;50.916;4.698;2022-12-26T04:58:06;10.60;99.90
22073;DHT22;11202;50.916;4.698;2022-12-26T05:00:32;10.60;99.90
22073;DHT22;11202;50.916;4.698;2022-12-26T05:03:00;10.60;99.90
22073;DHT22;11202;50.916;4.698;2022-12-26T05:05:47;10.60;99.90
22073;DHT22;11202;50.916;4.698;2022-12-26T05:08:42;10.60;99.90
22073;DHT22;11202;50.916;4.698;2022-12-26T05:11:28;10.60;99.90
22073;DHT22;11202;50.916;4.698;2022-12-26T05:13:57;10.60;99.90
22073;DHT22;11202;50.916;4.698;2022-12-26T05:16:24;10.60;99.90
22073;DHT22;11202;50.916;4.698;2022-12-26T05:19:14;10.60;99.90
22073;DHT22;11202;50.916;4.698;2022-12-26T05:21:59;10.60;99.90
22073;DHT22;11202;50.916;4.698;2022-12-26T05:24:44;10.60;99.90
22073;DHT22;11202;50.916;4.698;2022-12-26T05:27:34;10.60;99.90
22073;DHT22;11202;50.916;4.698;2022-12-26T05:30:20;10.50;99.90
22073;DHT22;11202;50.916;4.698;2022-12-26T05:32:46;10.60;99.90
22073;DHT22;11202;50.916;4.698;2022-12-26T05:35:31;10.60;99.90
22073;DHT22;11202;50.916;4.698;2022-12-26T05:37:57;10.60;99.90
22073;DHT22;11202;50.916;4.698;2022-12-26T05:40:22;10.60;99.90
22073;DHT22;11202;50.916;4.698;2022-12-26T05:42:49;10.70;99.90
22073;DHT22;11202;50.916;4.698;2022-12-26T05:45:21;10.70;99.90
22073;DHT22;11202;50.916;4.698;2022-12-26T05:47:48;10.70;99.90
22073;DHT22;11202;50.916;4.698;2022-12-26T05:50:16;10.80;99.90
22073;DHT22;11202;50.916;4.698;2022-12-26T05:52:42;10.80;99.90
22073;DHT22;11202;50.916;4.698;2022-12-26T05:55:08;10.80;99.90
22073;DHT22;11202;50.916;4.698;2022-12-26T05:57:35;10.80;99.90
22073;DHT22;11202;50.916;4.698;2022-12-26T06:00:04;10.80;99.90
22073;DHT22;11202;50.916;4.698;2022-12-26T06:02:32;10.80;99.90
22073;DHT22;11202;50.916;4.698;2022-12-26T06:05:02;10.70;99.90
22073;DHT22;11202;50.916;4.698;2022-12-26T06:07:27;10.80;99.90
22073;DHT22;11202;50.916;4.698;2022-12-26T06:09:53;10.80;99.90
22073;DHT22;11202;50.916;4.698;2022-12-26T06:12:18;10.80;99.90
22073;DHT22;11202;50.916;4.698;2022-12-26T06:14:46;10.90;99.90
22073;DHT22;11202;50.916;4.698;2022-12-26T06:17:15;10.90;99.90
22073;DHT22;11202;50.916;4.698;2022-12-26T06:19:41;10.90;99.90
22073;DHT22;11202;50.916;4.698;2022-12-26T06:22:06;10.90;99.90
22073;DHT22;11202;50.916;4.698;2022-12-26T06:24:32;10.90;99.90
22073;DHT22;11202;50.916;4.698;2022-12-26T06:27:00;10.90;99.90
22073;DHT22;11202;50.916;4.698;2022-12-26T06:29:28;11.00;99.90
22073;DHT22;11202;50.916;4.698;2022-12-26T06:31:54;11.00;99.90
22073;DHT22;11202;50.916;4.698;2022-12-26T06:34:20;11.00;99.90
22073;DHT22;11202;50.916;4.698;2022-12-26T06:36:46;11.00;99.90
22073;DHT22;11202;50.916;4.698;2022-12-26T06:39:12;11.00;99.90
22073;DHT22;11202;50.916;4.698;2022-12-26T06:41:38;11.00;99.90
22073;DHT22;11202;50.916;4.698;2022-12-26T06:44:03;11.00;99.90
22073;DHT22;11202;50.916;4.698;2022-12-26T06:46:30;10.90;99.90
22073;DHT22;11202;50.916;4.698;2022-12-26T06:48:56;10.90;99.90
22073;DHT22;11202;50.916;4.698;2022-12-26T06:51:24;10.90;99.90
22073;DHT22;11202;50.916;4.698;2022-12-26T06:53:51;11.00;99.90
22073;DHT22;11202;50.916;4.698;2022-12-26T06:56:20;11.00;99.90
22073;DHT22;11202;50.916;4.698;2022-12-26T06:58:46;11.00;99.90
22073;DHT22;11202;50.916;4.698;2022-12-26T07:01:15;10.90;99.90
22073;DHT22;11202;50.916;4.698;2022-12-26T07:03:42;10.90;99.90
22073;DHT22;11202;50.916;4.698;2022-12-26T07:06:23;10.90;99.90
22073;DHT22;11202;50.916;4.698;2022-12-26T07:08:49;10.90;99.90
22073;DHT22;11202;50.916;4.698;2022-12-26T07:11:20;10.90;99.90
22073;DHT22;11202;50.916;4.698;2022-12-26T07:13:46;10.90;99.90
22073;DHT22;11202;50.916;4.698;2022-12-26T07:16:12;10.90;99.90
22073;DHT22;11202;50.916;4.698;2022-12-26T07:18:38;10.80;99.90
22073;DHT22;11202;50.916;4.698;2022-12-26T07:21:13;10.90;99.90
22073;DHT22;11202;50.916;4.698;2022-12-26T07:23:38;10.90;99.90
22073;DHT22;11202;50.916;4.698;2022-12-26T07:26:08;11.00;99.90
22073;DHT22;11202;50.916;4.698;2022-12-26T07:28:36;10.90;99.90
22073;DHT22;11202;50.916;4.698;2022-12-26T07:31:02;10.90;99.90
22073;DHT22;11202;50.916;4.698;2022-12-26T07:33:29;10.90;99.90
22073;DHT22;11202;50.916;4.698;2022-12-26T07:35:59;10.90;99.90
22073;DHT22;11202;50.916;4.698;2022-12-26T07:38:24;10.90;99.90
22073;DHT22;11202;50.916;4.698;2022-12-26T07:40:52;10.90;99.90
22073;DHT22;11202;50.916;4.698;2022-12-26T07:43:21;10.90;99.90
22073;DHT22;11202;50.916;4.698;2022-12-26T07:45:48;10.90;99.90
22073;DHT22;11202;50.916;4.698;2022-12-26T07:48:13;10.90;99.90
22073;DHT22;11202;50.916;4.698;2022-12-26T07:50:39;11.00;99.90
22073;DHT22;11202;50.916;4.698;2022-12-26T07:53:05;11.00;99.90
22073;DHT22;11202;50.916;4.698;2022-12-26T07:55:30;10.80;99.90
22073;DHT22;11202;50.916;4.698;2022-12-26T07:57:56;10.90;99.90
22073;DHT22;11202;50.916;4.698;2022-12-26T08:00:22;10.80;99.90
22073;DHT22;11202;50.916;4.698;2022-12-26T08:02:49;10.80;99.90
22073;DHT22;11202;50.916;4.698;2022-12-26T08:05:17;10.70;99.90
22073;DHT22;11202;50.916;4.698;2022-12-26T08:07:48;10.70;99.90
22073;DHT22;11202;50.916;4.698;2022-12-26T08:10:15;10.70;99.90
22073;DHT22;11202;50.916;4.698;2022-12-26T08:12:41;10.70;99.90
22073;DHT22;11202;50.916;4.698;2022-12-26T08:15:07;10.60;99.90
22073;DHT22;11202;50.916;4.698;2022-12-26T08:17:35;10.60;99.90
22073;DHT22;11202;50.916;4.698;2022-12-26T08:20:01;10.50;99.90
22073;DHT22;11202;50.916;4.698;2022-12-26T08:22:26;10.60;99.90
22073;DHT22;11202;50.916;4.698;2022-12-26T08:24:52;10.60;99.90
22073;DHT22;11202;50.916;4.698;2022-12-26T08:27:18;10.60;99.90
22073;DHT22;11202;50.916;4.698;2022-12-26T08:29:46;10.70;99.90
22073;DHT22;11202;50.916;4.698;2022-12-26T08:32:12;10.80;99.90
22073;DHT22;11202;50.916;4.698;2022-12-26T08:34:40;10.80;99.90
22073;DHT22;11202;50.916;4.698;2022-12-26T08:37:05;10.80;99.90
22073;DHT22;11202;50.916;4.698;2022-12-26T08:39:31;10.90;99.90
22073;DHT22;11202;50.916;4.698;2022-12-26T08:41:57;10.90;99.90
22073;DHT22;11202;50.916;4.698;2022-12-26T08:44:25;10.80;99.90
22073;DHT22;11202;50.916;4.698;2022-12-26T08:46:51;10.80;99.90
22073;DHT22;11202;50.916;4.698;2022-12-26T08:49:16;10.70;99.90
22073;DHT22;11202;50.916;4.698;2022-12-26T08:51:42;10.70;99.90
22073;DHT22;11202;50.916;4.698;2022-12-26T08:54:07;10.70;99.90
22073;DHT22;11202;50.916;4.698;2022-12-26T08:56:33;10.60;99.90
22073;DHT22;11202;50.916;4.698;2022-12-26T08:58:59;10.70;99.90
22073;DHT22;11202;50.916;4.698;2022-12-26T09:01:27;10.70;99.90
22073;DHT22;11202;50.916;4.698;2022-12-26T09:03:58;10.70;99.90
22073;DHT22;11202;50.916;4.698;2022-12-26T09:06:24;10.70;99.90
22073;DHT22;11202;50.916;4.698;2022-12-26T09:08:51;10.80;99.90
22073;DHT22;11202;50.916;4.698;2022-12-26T09:11:19;10.90;99.90
22073;DHT22;11202;50.916;4.698;2022-12-26T09:13:46;10.90;99.90
22073;DHT22;11202;50.916;4.698;2022-12-26T09:16:14;11.00;99.90
22073;DHT22;11202;50.916;4.698;2022-12-26T09:18:40;11.00;99.90
22073;DHT22;11202;50.916;4.698;2022-12-26T09:21:08;11.10;99.90
22073;DHT22;11202;50.916;4.698;2022-12-26T09:23:35;11.20;99.90
22073;DHT22;11202;50.916;4.698;2022-12-26T09:26:06;11.20;99.90
22073;DHT22;11202;50.916;4.698;2022-12-26T09:28:33;11.30;99.90
22073;DHT22;11202;50.916;4.698;2022-12-26T09:31:03;11.30;99.90
22073;DHT22;11202;50.916;4.698;2022-12-26T09:33:30;11.30;99.90
22073;DHT22;11202;50.916;4.698;2022-12-26T09:35:58;11.30;99.90
22073;DHT22;11202;50.916;4.698;2022-12-26T09:38:24;11.20;99.90
22073;DHT22;11202;50.916;4.698;2022-12-26T09:41:10;11.20;99.90
22073;DHT22;11202;50.916;4.698;2022-12-26T09:49:19;11.10;99.90
22073;DHT22;11202;50.916;4.698;2022-12-26T09:51:52;10.90;99.90
22073;DHT22;11202;50.916;4.698;2022-12-26T09:54:37;10.80;99.90
22073;DHT22;11202;50.916;4.698;2022-12-26T09:57:11;10.70;99.90
22073;DHT22;11202;50.916;4.698;2022-12-26T09:59:49;10.70;99.90
22073;DHT22;11202;50.916;4.698;2022-12-26T10:02:23;10.80;99.90
22073;DHT22;11202;50.916;4.698;2022-12-26T10:04:50;10.90;99.90
22073;DHT22;11202;50.916;4.698;2022-12-26T10:10:24;11.00;99.90
22073;DHT22;11202;50.916;4.698;2022-12-26T10:13:12;11.00;99.90
22073;DHT22;11202;50.916;4.698;2022-12-26T10:15:55;11.10;99.90
22073;DHT22;11202;50.916;4.698;2022-12-26T10:18:48;11.10;99.90
22073;DHT22;11202;50.916;4.698;2022-12-26T10:24:19;10.80;99.90
22073;DHT22;11202;50.916;4.698;2022-12-26T10:27:10;10.70;99.90
22073;DHT22;11202;50.916;4.698;2022-12-26T10:29:40;10.60;99.90
22073;DHT22;11202;50.916;4.698;2022-12-26T10:32:12;10.50;99.90
22073;DHT22;11202;50.916;4.698;2022-12-26T10:34:44;10.50;99.90
22073;DHT22;11202;50.916;4.698;2022-12-26T10:37:40;10.50;99.90
22073;DHT22;11202;50.916;4.698;2022-12-26T10:40:17;10.50;99.90
22073;DHT22;11202;50.916;4.698;2022-12-26T10:42:53;10.40;99.90
22073;DHT22;11202;50.916;4.698;2022-12-26T10:48:22;10.30;99.90
22073;DHT22;11202;50.916;4.698;2022-12-26T10:50:50;10.20;99.90
22073;DHT22;11202;50.916;4.698;2022-12-26T10:53:16;10.20;99.90
22073;DHT22;11202;50.916;4.698;2022-12-26T10:55:43;10.10;99.90
22073;DHT22;11202;50.916;4.698;2022-12-26T10:58:20;10.20;99.90
22073;DHT22;11202;50.916;4.698;2022-12-26T11:00:47;10.30;99.90
22073;DHT22;11202;50.916;4.698;2022-12-26T11:03:16;10.40;99.90
22073;DHT22;11202;50.916;4.698;2022-12-26T11:05:51;10.50;99.90
22073;DHT22;11202;50.916;4.698;2022-12-26T11:08:28;10.60;99.90
22073;DHT22;11202;50.916;4.698;2022-12-26T11:11:15;10.70;99.90
22073;DHT22;11202;50.916;4.698;2022-12-26T11:14:04;10.80;99.90
22073;DHT22;11202;50.916;4.698;2022-12-26T11:16:34;10.90;99.90
22073;DHT22;11202;50.916;4.698;2022-12-26T11:19:02;11.00;99.90
22073;DHT22;11202;50.916;4.698;2022-12-26T11:21:29;11.10;99.90
22073;DHT22;11202;50.916;4.698;2022-12-26T11:26:38;10.90;99.90
22073;DHT22;11202;50.916;4.698;2022-12-26T11:29:16;10.90;99.90
22073;DHT22;11202;50.916;4.698;2022-12-26T11:31:53;10.60;99.90
22073;DHT22;11202;50.916;4.698;2022-12-26T11:34:36;10.30;99.90
22073;DHT22;11202;50.916;4.698;2022-12-26T11:37:07;10.00;99.90
22073;DHT22;11202;50.916;4.698;2022-12-26T11:39:49;10.00;99.90
22073;DHT22;11202;50.916;4.698;2022-12-26T11:42:39;10.00;99.90
22073;DHT22;11202;50.916;4.698;2022-12-26T11:45:27;10.10;99.90
22073;DHT22;11202;50.916;4.698;2022-12-26T11:47:58;10.00;99.90
22073;DHT22;11202;50.916;4.698;2022-12-26T11:53:48;9.90;99.90
22073;DHT22;11202;50.916;4.698;2022-12-26T11:56:24;9.80;99.90
22073;DHT22;11202;50.916;4.698;2022-12-26T11:59:11;9.70;99.90
22073;DHT22;11202;50.916;4.698;2022-12-26T12:01:43;9.60;99.90
22073;DHT22;11202;50.916;4.698;2022-12-26T12:04:09;9.70;99.90
22073;DHT22;11202;50.916;4.698;2022-12-26T12:09:37;9.80;99.90
22073;DHT22;11202;50.916;4.698;2022-12-26T12:15:13;9.80;99.90
22073;DHT22;11202;50.916;4.698;2022-12-26T12:28:57;9.40;99.90
22073;DHT22;11202;50.916;4.698;2022-12-26T12:30:57;9.20;99.90
22073;DHT22;11202;50.916;4.698;2022-12-26T12:36:21;9.20;99.90
22073;DHT22;11202;50.916;4.698;2022-12-26T12:39:10;9.30;99.90
22073;DHT22;11202;50.916;4.698;2022-12-26T12:42:06;9.40;99.90
22073;DHT22;11202;50.916;4.698;2022-12-26T13:01:14;9.30;99.90
22073;DHT22;11202;50.916;4.698;2022-12-26T13:06:49;9.30;99.90
22073;DHT22;11202;50.916;4.698;2022-12-26T13:10:18;9.20;99.90
22073;DHT22;11202;50.916;4.698;2022-12-26T13:13:39;9.20;99.90
22073;DHT22;11202;50.916;4.698;2022-12-26T13:16:52;9.20;99.90
22073;DHT22;11202;50.916;4.698;2022-12-26T13:21:03;9.30;99.90
22073;DHT22;11202;50.916;4.698;2022-12-26T13:27:31;9.30;99.90
22073;DHT22;11202;50.916;4.698;2022-12-26T13:30:57;9.30;99.90
22073;DHT22;11202;50.916;4.698;2022-12-26T13:34:59;9.30;99.90
22073;DHT22;11202;50.916;4.698;2022-12-26T13:52:45;9.00;99.90
22073;DHT22;11202;50.916;4.698;2022-12-26T13:59:22;8.90;99.90
22073;DHT22;11202;50.916;4.698;2022-12-26T14:16:35;8.20;99.90
22073;DHT22;11202;50.916;4.698;2022-12-26T14:23:41;8.20;99.90
22073;DHT22;11202;50.916;4.698;2022-12-26T14:47:53;8.10;99.90
22073;DHT22;11202;50.916;4.698;2022-12-26T14:54:58;7.90;99.90
22073;DHT22;11202;50.916;4.698;2022-12-26T15:33:49;6.20;99.90
22073;DHT22;11202;50.916;4.698;2022-12-26T15:45:48;6.00;99.90
22073;DHT22;11202;50.916;4.698;2022-12-26T15:48:41;6.00;99.90
22073;DHT22;11202;50.916;4.698;2022-12-26T15:51:13;5.90;99.90
22073;DHT22;11202;50.916;4.698;2022-12-26T16:01:41;5.80;99.90
22073;DHT22;11202;50.916;4.698;2022-12-26T16:07:05;5.60;99.90
22073;DHT22;11202;50.916;4.698;2022-12-26T16:09:46;5.60;99.90
22073;DHT22;11202;50.916;4.698;2022-12-26T16:12:29;5.50;99.90
22073;DHT22;11202;50.916;4.698;2022-12-26T16:15:14;5.50;99.90
22073;DHT22;11202;50.916;4.698;2022-12-26T16:17:41;5.40;99.90
22073;DHT22;11202;50.916;4.698;2022-12-26T16:22:43;5.30;99.90
22073;DHT22;11202;50.916;4.698;2022-12-26T16:25:20;5.30;99.90
22073;DHT22;11202;50.916;4.698;2022-12-26T16:27:48;5.40;99.90
22073;DHT22;11202;50.916;4.698;2022-12-26T16:30:35;5.40;99.90
22073;DHT22;11202;50.916;4.698;2022-12-26T16:33:05;5.40;99.90
22073;DHT22;11202;50.916;4.698;2022-12-26T16:35:32;5.40;99.90
22073;DHT22;11202;50.916;4.698;2022-12-26T16:38:01;5.40;99.90
22073;DHT22;11202;50.916;4.698;2022-12-26T16:40:34;5.50;99.90
22073;DHT22;11202;50.916;4.698;2022-12-26T16:43:25;5.50;99.90
22073;DHT22;11202;50.916;4.698;2022-12-26T16:45:55;5.50;99.90
22073;DHT22;11202;50.916;4.698;2022-12-26T16:48:25;5.30;99.90
22073;DHT22;11202;50.916;4.698;2022-12-26T16:50:55;5.20;99.90
22073;DHT22;11202;50.916;4.698;2022-12-26T16:53:43;5.10;99.90
22073;DHT22;11202;50.916;4.698;2022-12-26T16:58:40;5.00;99.90
22073;DHT22;11202;50.916;4.698;2022-12-26T17:01:09;5.10;99.90
22073;DHT22;11202;50.916;4.698;2022-12-26T17:03:47;5.00;99.90
22073;DHT22;11202;50.916;4.698;2022-12-26T17:06:21;5.10;99.90
22073;DHT22;11202;50.916;4.698;2022-12-26T17:08:49;5.10;99.90
22073;DHT22;11202;50.916;4.698;2022-12-26T17:11:17;5.10;99.90
22073;DHT22;11202;50.916;4.698;2022-12-26T17:13:50;5.20;99.90
22073;DHT22;11202;50.916;4.698;2022-12-26T17:16:17;5.10;99.90
22073;DHT22;11202;50.916;4.698;2022-12-26T17:21:34;5.00;99.90
22073;DHT22;11202;50.916;4.698;2022-12-26T17:24:20;5.10;99.90
22073;DHT22;11202;50.916;4.698;2022-12-26T17:27:15;5.00;99.90
22073;DHT22;11202;50.916;4.698;2022-12-26T17:29:53;5.10;99.90
22073;DHT22;11202;50.916;4.698;2022-12-26T17:32:39;5.00;99.90
22073;DHT22;11202;50.916;4.698;2022-12-26T17:35:26;4.80;99.90
22073;DHT22;11202;50.916;4.698;2022-12-26T17:38:27;4.80;99.90
22073;DHT22;11202;50.916;4.698;2022-12-26T17:40:59;4.90;99.90
22073;DHT22;11202;50.916;4.698;2022-12-26T17:43:36;4.80;99.90
22073;DHT22;11202;50.916;4.698;2022-12-26T17:46:04;4.80;99.90
22073;DHT22;11202;50.916;4.698;2022-12-26T17:48:33;4.80;99.90
22073;DHT22;11202;50.916;4.698;2022-12-26T17:51:14;4.90;99.90
22073;DHT22;11202;50.916;4.698;2022-12-26T17:53:43;4.90;99.90
22073;DHT22;11202;50.916;4.698;2022-12-26T17:56:18;4.90;99.90
22073;DHT22;11202;50.916;4.698;2022-12-26T17:58:46;4.80;99.90
22073;DHT22;11202;50.916;4.698;2022-12-26T18:01:34;4.80;99.90
22073;DHT22;11202;50.916;4.698;2022-12-26T18:04:47;4.70;99.90
22073;DHT22;11202;50.916;4.698;2022-12-26T18:07:19;4.70;99.90
22073;DHT22;11202;50.916;4.698;2022-12-26T18:09:51;4.70;99.90
22073;DHT22;11202;50.916;4.698;2022-12-26T18:12:58;4.70;99.90
22073;DHT22;11202;50.916;4.698;2022-12-26T18:16:16;4.70;99.90
22073;DHT22;11202;50.916;4.698;2022-12-26T18:18:45;4.70;99.90
22073;DHT22;11202;50.916;4.698;2022-12-26T18:21:14;4.70;99.90
22073;DHT22;11202;50.916;4.698;2022-12-26T18:23:41;4.70;99.90
22073;DHT22;11202;50.916;4.698;2022-12-26T18:26:25;4.80;99.90
22073;DHT22;11202;50.916;4.698;2022-12-26T18:28:52;4.80;99.90
22073;DHT22;11202;50.916;4.698;2022-12-26T18:31:18;4.80;99.90
22073;DHT22;11202;50.916;4.698;2022-12-26T18:33:44;4.80;99.90
22073;DHT22;11202;50.916;4.698;2022-12-26T18:36:16;4.80;99.90
22073;DHT22;11202;50.916;4.698;2022-12-26T18:38:44;4.80;99.90
22073;DHT22;11202;50.916;4.698;2022-12-26T18:41:17;4.80;99.90
22073;DHT22;11202;50.916;4.698;2022-12-26T18:43:43;4.80;99.90
22073;DHT22;11202;50.916;4.698;2022-12-26T18:46:18;4.80;99.90
22073;DHT22;11202;50.916;4.698;2022-12-26T18:48:48;4.60;99.90
22073;DHT22;11202;50.916;4.698;2022-12-26T18:51:15;4.60;99.90
22073;DHT22;11202;50.916;4.698;2022-12-26T18:53:40;4.50;99.90
22073;DHT22;11202;50.916;4.698;2022-12-26T18:56:14;4.50;99.90
22073;DHT22;11202;50.916;4.698;2022-12-26T18:58:43;4.40;99.90
22073;DHT22;11202;50.916;4.698;2022-12-26T19:01:12;4.60;99.90
22073;DHT22;11202;50.916;4.698;2022-12-26T19:03:38;4.50;99.90
22073;DHT22;11202;50.916;4.698;2022-12-26T19:06:04;4.50;99.90
22073;DHT22;11202;50.916;4.698;2022-12-26T19:08:30;4.60;99.90
22073;DHT22;11202;50.916;4.698;2022-12-26T19:10:56;4.60;99.90
22073;DHT22;11202;50.916;4.698;2022-12-26T19:13:22;4.50;99.90
22073;DHT22;11202;50.916;4.698;2022-12-26T19:15:48;4.50;99.90
22073;DHT22;11202;50.916;4.698;2022-12-26T19:18:14;4.50;99.90
22073;DHT22;11202;50.916;4.698;2022-12-26T19:20:42;4.50;99.90
22073;DHT22;11202;50.916;4.698;2022-12-26T19:23:08;4.40;99.90
22073;DHT22;11202;50.916;4.698;2022-12-26T19:25:34;4.40;99.90
22073;DHT22;11202;50.916;4.698;2022-12-26T19:28:00;4.40;99.90
22073;DHT22;11202;50.916;4.698;2022-12-26T19:30:26;4.40;99.90
22073;DHT22;11202;50.916;4.698;2022-12-26T19:32:52;4.40;99.90
22073;DHT22;11202;50.916;4.698;2022-12-26T19:35:18;4.40;99.90
22073;DHT22;11202;50.916;4.698;2022-12-26T19:37:44;4.40;99.90
22073;DHT22;11202;50.916;4.698;2022-12-26T19:40:11;4.40;99.90
22073;DHT22;11202;50.916;4.698;2022-12-26T19:42:38;4.50;99.90
22073;DHT22;11202;50.916;4.698;2022-12-26T19:45:04;4.50;99.90
22073;DHT22;11202;50.916;4.698;2022-12-26T19:47:31;4.40;99.90
22073;DHT22;11202;50.916;4.698;2022-12-26T19:49:57;4.40;99.90
22073;DHT22;11202;50.916;4.698;2022-12-26T19:52:24;4.40;99.90
22073;DHT22;11202;50.916;4.698;2022-12-26T19:54:50;4.40;99.90
22073;DHT22;11202;50.916;4.698;2022-12-26T19:57:17;4.40;99.90
22073;DHT22;11202;50.916;4.698;2022-12-26T19:59:42;4.40;99.90
22073;DHT22;11202;50.916;4.698;2022-12-26T20:02:11;4.50;99.90
22073;DHT22;11202;50.916;4.698;2022-12-26T20:04:37;4.40;99.90
22073;DHT22;11202;50.916;4.698;2022-12-26T20:07:06;4.40;99.90
22073;DHT22;11202;50.916;4.698;2022-12-26T20:09:34;4.40;99.90
22073;DHT22;11202;50.916;4.698;2022-12-26T20:12:03;4.30;99.90
22073;DHT22;11202;50.916;4.698;2022-12-26T20:14:29;4.40;99.90
22073;DHT22;11202;50.916;4.698;2022-12-26T20:16:57;4.40;99.90
22073;DHT22;11202;50.916;4.698;2022-12-26T20:19:25;4.40;99.90
22073;DHT22;11202;50.916;4.698;2022-12-26T20:21:51;4.40;99.90
22073;DHT22;11202;50.916;4.698;2022-12-26T20:24:17;4.50;99.90